Time;durP1;ratioP1;P1;durP2;ratioP2;P2;SDS_P1;SDS_P2;PMS_P1;PMS_P2;Temp;Humidity;BMP_temperature;BMP_pressure;BME280_temperature;BME280_humidity;BME280_pressure;Samples;Min_cycle;Max_cycle;Signal;HPM_P1;HPM_P2
2024/01/26 00:02:15;;;;;;;13.35;3.42;;;7.20;73.30;;;;;;5092745;28;20051;-68
2024/01/26 00:04:41;;;;;;;11.98;3.08;;;7.10;73.30;;;;;;5092938;28;20384;-69
2024/01/26 00:07:06;;;;;;;10.40;2.90;;;7.10;73.40;;;;;;5093528;28;20469;-68
2024/01/26 00:09:32;;;;;;;14.45;3.30;;;7.10;73.60;;;;;;5099201;28;20059;-68
2024/01/26 00:11:58;;;;;;;13.90;2.95;;;7.10;73.70;;;;;;5113480;28;20110;-68
2024/01/26 00:14:23;;;;;;;13.95;3.25;;;7.10;73.70;;;;;;5113049;28;20028;-68
2024/01/26 00:16:49;;;;;;;17.58;3.17;;;7.10;73.90;;;;;;5112957;28;20476;-68
2024/01/26 00:19:15;;;;;;;14.30;3.53;;;7.10;73.90;;;;;;5112800;28;20082;-68
2024/01/26 00:21:40;;;;;;;17.88;3.45;;;7.10;74.10;;;;;;5113076;28;20069;-68
2024/01/26 00:24:06;;;;;;;9.18;2.97;;;7.10;74.20;;;;;;5111801;28;20072;-68
2024/01/26 00:26:50;;;;;;;11.38;3.30;;;7.00;74.30;;;;;;5112522;28;20024;-69
2024/01/26 00:29:16;;;;;;;16.00;3.03;;;7.00;74.50;;;;;;5112878;28;20097;-68
2024/01/26 00:31:42;;;;;;;16.77;3.47;;;7.00;74.60;;;;;;5113068;28;20027;-68
2024/01/26 00:34:07;;;;;;;15.05;3.15;;;7.00;74.70;;;;;;5113084;28;20433;-68
2024/01/26 00:36:33;;;;;;;15.30;3.67;;;7.00;74.80;;;;;;5112338;28;20101;-68
2024/01/26 00:38:58;;;;;;;17.85;3.90;;;7.00;75.00;;;;;;5112723;28;20031;-68
2024/01/26 00:41:24;;;;;;;16.15;3.50;;;7.00;75.20;;;;;;5112310;28;20034;-68
2024/01/26 00:43:50;;;;;;;12.65;3.40;;;6.90;75.40;;;;;;5104138;28;20035;-68
2024/01/26 00:46:15;;;;;;;19.05;4.32;;;6.90;75.50;;;;;;5092205;28;20035;-68
2024/01/26 00:48:41;;;;;;;20.02;3.40;;;6.90;75.70;;;;;;5092390;28;20065;-69
2024/01/26 00:51:06;;;;;;;20.73;3.70;;;6.90;75.60;;;;;;5092178;28;20077;-68
2024/01/26 00:53:32;;;;;;;18.40;3.13;;;6.90;75.80;;;;;;5090661;28;20020;-67
2024/01/26 00:55:58;;;;;;;16.65;3.25;;;6.90;75.90;;;;;;5092300;28;20392;-69
2024/01/26 00:58:24;;;;;;;10.63;2.80;;;6.90;76.50;;;;;;5091045;28;20169;-68
2024/01/26 01:00:49;;;;;;;17.75;3.40;;;6.90;76.00;;;;;;5092114;28;20023;-68
2024/01/26 01:03:15;;;;;;;14.65;4.00;;;6.90;76.00;;;;;;5091693;28;20357;-68
2024/01/26 01:05:42;;;;;;;9.45;2.78;;;6.90;76.00;;;;;;5091185;28;20024;-67
2024/01/26 01:08:08;;;;;;;16.40;3.88;;;6.90;76.00;;;;;;5092171;28;20027;-68
2024/01/26 01:10:33;;;;;;;20.17;4.57;;;6.90;76.10;;;;;;5090402;28;20369;-69
2024/01/26 01:12:59;;;;;;;14.13;3.20;;;6.90;76.30;;;;;;5092206;28;20016;-67
2024/01/26 01:15:25;;;;;;;15.38;3.88;;;6.90;76.30;;;;;;5091694;28;20028;-68
2024/01/26 01:17:50;;;;;;;11.43;2.80;;;6.90;76.40;;;;;;5091821;28;20067;-68
2024/01/26 01:20:16;;;;;;;17.40;3.83;;;6.90;76.40;;;;;;5091565;28;20111;-68
2024/01/26 01:22:42;;;;;;;18.02;3.50;;;6.80;76.60;;;;;;5091997;28;20036;-68
2024/01/26 01:25:11;;;;;;;22.88;4.20;;;6.80;76.70;;;;;;5091805;28;20028;-69
2024/01/26 01:27:36;;;;;;;16.80;3.47;;;6.90;76.80;;;;;;5091544;28;20032;-68
2024/01/26 01:30:07;;;;;;;17.73;3.45;;;6.90;77.00;;;;;;5092022;28;20051;-68
2024/01/26 01:32:33;;;;;;;15.82;3.35;;;6.80;77.00;;;;;;5090745;28;20020;-68
2024/01/26 01:34:58;;;;;;;16.52;3.60;;;6.80;77.40;;;;;;5091844;28;20470;-68
2024/01/26 01:37:24;;;;;;;15.48;3.85;;;6.80;77.50;;;;;;5091378;28;20031;-68
2024/01/26 01:39:50;;;;;;;21.17;3.50;;;6.80;77.60;;;;;;5091553;28;20495;-68
2024/01/26 01:42:16;;;;;;;19.70;5.03;;;6.70;77.60;;;;;;5091694;28;20111;-68
2024/01/26 01:44:45;;;;;;;13.70;3.05;;;6.70;77.80;;;;;;5091387;28;20108;-67
2024/01/26 01:47:12;;;;;;;15.95;3.50;;;6.70;78.00;;;;;;5091997;28;20125;-67
2024/01/26 01:49:38;;;;;;;12.88;3.00;;;6.70;78.10;;;;;;5090936;28;20032;-67
2024/01/26 01:52:07;;;;;;;12.52;3.28;;;6.70;78.30;;;;;;5090364;28;20024;-68
2024/01/26 01:54:33;;;;;;;15.75;3.28;;;6.70;78.20;;;;;;5091526;28;20437;-67
2024/01/26 01:57:02;;;;;;;18.38;3.13;;;6.70;78.20;;;;;;5091265;28;20063;-67
2024/01/26 01:59:28;;;;;;;18.40;4.55;;;6.70;78.20;;;;;;5091205;28;20047;-68
2024/01/26 02:01:54;;;;;;;18.17;4.68;;;6.70;78.40;;;;;;5091794;28;20131;-68
2024/01/26 02:04:20;;;;;;;13.00;3.47;;;6.70;78.40;;;;;;5091231;28;20095;-69
2024/01/26 02:06:56;;;;;;;12.23;2.75;;;6.70;78.50;;;;;;5089888;28;20062;-68
2024/01/26 02:09:22;;;;;;;12.23;3.13;;;6.70;78.70;;;;;;5093602;28;20028;-68
2024/01/26 02:11:47;;;;;;;12.25;3.40;;;6.70;78.50;;;;;;5102163;28;20433;-68
2024/01/26 02:14:13;;;;;;;18.60;3.50;;;6.70;78.70;;;;;;5115412;28;20024;-68
2024/01/26 02:16:39;;;;;;;18.42;3.63;;;6.70;78.70;;;;;;5115193;28;20032;-68
2024/01/26 02:19:04;;;;;;;12.43;3.38;;;6.70;78.80;;;;;;5115611;28;20471;-68
2024/01/26 02:21:30;;;;;;;15.77;2.80;;;6.60;78.70;;;;;;5115111;28;20023;-68
2024/01/26 02:23:55;;;;;;;14.90;3.28;;;6.60;78.90;;;;;;5115632;28;20503;-68
2024/01/26 02:26:21;;;;;;;17.17;3.85;;;6.70;78.80;;;;;;5115281;28;20034;-68
2024/01/26 02:28:47;;;;;;;19.02;3.28;;;6.60;78.70;;;;;;5115118;28;20378;-68
2024/01/26 02:31:12;;;;;;;16.92;3.50;;;6.60;78.70;;;;;;5115371;28;20069;-68
2024/01/26 02:33:38;;;;;;;12.57;2.55;;;6.60;78.70;;;;;;5114933;28;20035;-68
2024/01/26 02:36:04;;;;;;;14.25;3.20;;;6.60;78.80;;;;;;5114901;28;20410;-68
2024/01/26 02:38:29;;;;;;;15.02;3.33;;;6.60;78.90;;;;;;5114923;28;20028;-68
2024/01/26 02:40:55;;;;;;;17.48;3.45;;;6.60;78.70;;;;;;5114842;28;20074;-68
2024/01/26 02:43:21;;;;;;;18.10;3.40;;;6.60;78.70;;;;;;5104857;28;20020;-69
2024/01/26 02:45:47;;;;;;;17.20;4.25;;;6.60;78.70;;;;;;5094730;28;20051;-68
2024/01/26 02:48:13;;;;;;;16.02;3.22;;;6.60;78.60;;;;;;5093110;28;20062;-68
2024/01/26 02:50:39;;;;;;;10.85;3.17;;;6.60;78.70;;;;;;5094179;28;20105;-68
2024/01/26 02:53:05;;;;;;;19.33;3.67;;;6.70;78.80;;;;;;5094446;28;20032;-68
2024/01/26 02:55:31;;;;;;;15.70;3.30;;;6.70;78.70;;;;;;5094064;28;20380;-68
2024/01/26 02:57:57;;;;;;;13.65;3.28;;;6.70;78.70;;;;;;5094415;28;20031;-69
2024/01/26 03:00:22;;;;;;;16.45;3.38;;;6.60;78.80;;;;;;5092626;28;20385;-69
2024/01/26 03:02:48;;;;;;;14.98;3.20;;;6.70;78.90;;;;;;5094522;28;20048;-67
2024/01/26 03:05:13;;;;;;;14.60;3.05;;;6.60;78.80;;;;;;5094376;28;20028;-68
2024/01/26 03:07:39;;;;;;;16.48;3.03;;;6.70;78.80;;;;;;5093797;28;20035;-67
2024/01/26 03:10:06;;;;;;;14.27;3.42;;;6.70;78.90;;;;;;5094117;28;20035;-67
2024/01/26 03:12:33;;;;;;;14.10;2.90;;;6.70;78.70;;;;;;5093477;28;20380;-67
2024/01/26 03:14:59;;;;;;;17.27;3.22;;;6.60;78.90;;;;;;5094053;28;20031;-67
2024/01/26 03:17:25;;;;;;;14.18;3.40;;;6.60;79.10;;;;;;5092354;28;20097;-68
2024/01/26 03:19:51;;;;;;;15.05;3.58;;;6.60;79.10;;;;;;5093550;28;20032;-67
2024/01/26 03:22:16;;;;;;;19.08;2.80;;;6.60;79.20;;;;;;5093569;28;20434;-67
2024/01/26 03:24:44;;;;;;;11.85;3.20;;;6.60;79.10;;;;;;5093512;28;20314;-68
2024/01/26 03:27:10;;;;;;;18.08;3.28;;;6.60;79.20;;;;;;5092603;28;20457;-68
2024/01/26 03:29:35;;;;;;;17.20;3.53;;;6.60;79.40;;;;;;5092117;28;20031;-68
2024/01/26 03:32:01;;;;;;;16.50;3.30;;;6.60;79.40;;;;;;5092343;28;20131;-68
2024/01/26 03:34:26;;;;;;;16.08;3.45;;;6.60;79.30;;;;;;5093639;28;20028;-68
2024/01/26 03:36:52;;;;;;;20.20;4.57;;;6.60;79.30;;;;;;5093557;28;20032;-67
2024/01/26 03:39:18;;;;;;;21.48;3.00;;;6.60;79.30;;;;;;5093535;28;20072;-69
2024/01/26 03:41:44;;;;;;;18.98;3.35;;;6.60;79.10;;;;;;5092896;28;20697;-68
2024/01/26 03:44:11;;;;;;;23.23;3.63;;;6.60;79.00;;;;;;5093098;28;20074;-68
2024/01/26 03:46:42;;;;;;;12.32;2.88;;;6.60;78.90;;;;;;5092881;28;20036;-68
2024/01/26 03:49:09;;;;;;;16.37;2.80;;;6.60;79.00;;;;;;5093550;28;20032;-67
2024/01/26 03:51:36;;;;;;;15.63;3.70;;;6.60;78.90;;;;;;5092987;28;20032;-68
2024/01/26 03:54:01;;;;;;;16.30;2.97;;;6.60;78.70;;;;;;5093186;28;20087;-68
2024/01/26 03:56:27;;;;;;;15.90;3.65;;;6.60;78.90;;;;;;5092606;28;20123;-68
2024/01/26 03:58:53;;;;;;;16.52;3.33;;;6.70;78.90;;;;;;5093414;28;20111;-67
2024/01/26 04:01:19;;;;;;;15.95;3.40;;;6.70;79.10;;;;;;5092752;28;20139;-68
2024/01/26 04:03:45;;;;;;;13.30;3.05;;;6.60;79.10;;;;;;5092661;28;20512;-68
2024/01/26 04:06:10;;;;;;;12.15;3.10;;;6.60;79.30;;;;;;5093075;28;20023;-68
2024/01/26 04:08:36;;;;;;;12.32;2.78;;;6.60;79.30;;;;;;5092429;28;20092;-68
2024/01/26 04:11:02;;;;;;;21.25;3.47;;;6.60;79.40;;;;;;5092774;28;20134;-69
2024/01/26 04:13:28;;;;;;;16.08;3.42;;;6.60;79.40;;;;;;5091255;28;20509;-67
2024/01/26 04:15:53;;;;;;;16.13;3.20;;;6.60;79.40;;;;;;5109788;28;20024;-69
2024/01/26 04:18:19;;;;;;;18.67;3.80;;;6.60;79.60;;;;;;5113109;28;20039;-68
2024/01/26 04:20:47;;;;;;;14.02;3.45;;;6.60;79.60;;;;;;5112748;28;20460;-68
2024/01/26 04:23:12;;;;;;;17.55;3.08;;;6.60;79.70;;;;;;5113069;28;20106;-68
2024/01/26 04:25:38;;;;;;;12.85;3.38;;;6.50;79.70;;;;;;5112517;28;20115;-69
2024/01/26 04:28:03;;;;;;;14.45;3.90;;;6.50;79.70;;;;;;5113114;28;20085;-68
2024/01/26 04:30:29;;;;;;;13.07;2.88;;;6.50;79.60;;;;;;5112827;28;20028;-69
2024/01/26 04:32:55;;;;;;;14.13;3.10;;;6.50;79.70;;;;;;5111865;28;20108;-68
2024/01/26 04:35:20;;;;;;;18.90;3.20;;;6.50;79.90;;;;;;5113003;28;20488;-69
2024/01/26 04:37:46;;;;;;;20.65;4.13;;;6.50;80.00;;;;;;5112500;28;20068;-69
2024/01/26 04:40:12;;;;;;;10.43;2.70;;;6.50;80.00;;;;;;5103990;28;20051;-68
2024/01/26 04:42:38;;;;;;;12.73;3.22;;;6.50;80.00;;;;;;5091789;28;20089;-68
2024/01/26 04:45:04;;;;;;;14.27;3.00;;;6.50;80.20;;;;;;5091930;28;20054;-68
2024/01/26 04:47:30;;;;;;;14.98;3.65;;;6.50;80.10;;;;;;5092061;28;20123;-70
2024/01/26 04:49:55;;;;;;;13.05;2.97;;;6.50;80.20;;;;;;5091727;28;20103;-69
2024/01/26 04:52:21;;;;;;;15.27;3.00;;;6.50;80.20;;;;;;5092226;28;20432;-68
2024/01/26 04:54:48;;;;;;;16.17;3.53;;;6.50;80.20;;;;;;5091562;28;20081;-67
2024/01/26 04:57:14;;;;;;;12.73;2.88;;;6.50;80.20;;;;;;5091890;28;20031;-68
2024/01/26 04:59:39;;;;;;;10.15;3.20;;;6.50;80.30;;;;;;5090246;28;20035;-68
2024/01/26 05:02:05;;;;;;;16.75;3.17;;;6.50;80.40;;;;;;5092086;28;20048;-68
2024/01/26 05:04:31;;;;;;;17.05;3.33;;;6.50;80.40;;;;;;5091279;28;20444;-70
2024/01/26 05:06:56;;;;;;;13.50;3.28;;;6.50;80.40;;;;;;5091809;28;20491;-68
2024/01/26 05:09:22;;;;;;;13.55;3.28;;;6.50;80.50;;;;;;5091920;28;20051;-68
2024/01/26 05:11:48;;;;;;;15.20;3.17;;;6.50;80.50;;;;;;5091408;28;20028;-68
2024/01/26 05:14:14;;;;;;;11.18;2.83;;;6.50;80.60;;;;;;5092128;28;20157;-67
2024/01/26 05:16:39;;;;;;;15.73;3.38;;;6.40;80.70;;;;;;5090144;28;20028;-68
2024/01/26 05:19:05;;;;;;;17.90;3.70;;;6.50;80.60;;;;;;5091677;28;20377;-68
2024/01/26 05:21:30;;;;;;;11.63;3.40;;;6.50;80.60;;;;;;5091770;28;20020;-68
2024/01/26 05:23:56;;;;;;;19.92;3.63;;;6.50;80.60;;;;;;5091267;28;20484;-69
2024/01/26 05:26:22;;;;;;;17.42;3.30;;;6.50;80.70;;;;;;5091475;28;20103;-67
2024/01/26 05:28:47;;;;;;;15.23;3.28;;;6.50;80.80;;;;;;5091045;28;20103;-68
2024/01/26 05:31:13;;;;;;;14.55;3.38;;;6.50;80.70;;;;;;5091363;28;20034;-67
2024/01/26 05:33:38;;;;;;;13.70;3.20;;;6.50;80.60;;;;;;5090870;28;20024;-69
2024/01/26 05:36:04;;;;;;;17.75;3.47;;;6.50;80.70;;;;;;5091298;28;20016;-67
2024/01/26 05:38:30;;;;;;;16.55;3.13;;;6.50;80.60;;;;;;5091559;28;20318;-67
2024/01/26 05:40:56;;;;;;;11.15;3.38;;;6.50;80.70;;;;;;5090820;28;20108;-67
2024/01/26 05:43:22;;;;;;;16.23;3.25;;;6.50;80.80;;;;;;5092072;28;20025;-67
2024/01/26 05:45:47;;;;;;;17.60;3.10;;;6.50;80.90;;;;;;5095455;28;20035;-69
2024/01/26 05:48:13;;;;;;;16.58;3.63;;;6.50;81.00;;;;;;5095323;28;20031;-67
2024/01/26 05:50:39;;;;;;;13.88;3.05;;;6.60;80.90;;;;;;5095357;28;20368;-68
2024/01/26 05:53:04;;;;;;;13.90;3.33;;;6.50;80.70;;;;;;5095473;28;20409;-68
2024/01/26 05:55:30;;;;;;;18.00;3.20;;;6.60;80.70;;;;;;5094949;28;20061;-68
2024/01/26 05:57:56;;;;;;;12.80;3.05;;;6.60;80.60;;;;;;5095134;28;20025;-68
2024/01/26 06:00:22;;;;;;;14.35;2.63;;;6.60;80.60;;;;;;5095349;28;20035;-68
2024/01/26 06:02:48;;;;;;;10.98;3.45;;;6.60;80.60;;;;;;5094980;28;20074;-68
2024/01/26 06:05:14;;;;;;;9.20;3.13;;;6.60;80.80;;;;;;5095613;28;20020;-67
2024/01/26 06:07:39;;;;;;;12.07;3.15;;;6.60;80.60;;;;;;5093824;28;20028;-68
2024/01/26 06:10:06;;;;;;;12.23;3.38;;;6.60;80.60;;;;;;5094185;28;20032;-68
2024/01/26 06:12:31;;;;;;;10.60;2.78;;;6.60;80.50;;;;;;5095691;28;20107;-69
2024/01/26 06:14:57;;;;;;;11.98;3.03;;;6.60;80.70;;;;;;5110851;28;20058;-68
2024/01/26 06:17:23;;;;;;;12.98;2.92;;;6.60;80.60;;;;;;5115891;28;20057;-68
2024/01/26 06:19:48;;;;;;;11.68;2.42;;;6.60;80.50;;;;;;5115311;28;20041;-68
2024/01/26 06:22:14;;;;;;;16.90;3.25;;;6.60;80.60;;;;;;5115501;28;20462;-68
2024/01/26 06:24:40;;;;;;;19.23;3.45;;;6.70;80.70;;;;;;5115302;28;20108;-68
2024/01/26 06:27:05;;;;;;;16.40;2.95;;;6.60;80.70;;;;;;5115297;28;20452;-68
2024/01/26 06:29:31;;;;;;;12.30;3.22;;;6.60;80.60;;;;;;5115411;28;20027;-68
2024/01/26 06:31:59;;;;;;;12.77;2.55;;;6.60;80.60;;;;;;5114882;28;20056;-68
2024/01/26 06:34:26;;;;;;;15.00;3.83;;;6.60;80.60;;;;;;5115470;28;20108;-68
2024/01/26 06:36:51;;;;;;;11.45;3.17;;;6.60;80.80;;;;;;5114938;28;20027;-68
2024/01/26 06:39:17;;;;;;;12.85;3.20;;;6.70;80.80;;;;;;5115201;28;20027;-68
2024/01/26 06:41:43;;;;;;;13.57;3.13;;;6.70;80.70;;;;;;5114744;28;20080;-69
2024/01/26 06:44:10;;;;;;;18.58;4.68;;;6.70;80.70;;;;;;5115385;28;20099;-69
2024/01/26 06:46:35;;;;;;;11.50;3.35;;;6.70;80.80;;;;;;5114731;28;20491;-69
2024/01/26 06:49:03;;;;;;;15.55;2.97;;;6.70;80.80;;;;;;5103792;28;20024;-68
2024/01/26 06:51:29;;;;;;;10.75;3.03;;;6.70;80.70;;;;;;5094282;28;20043;-68
2024/01/26 06:53:56;;;;;;;15.63;4.20;;;6.70;80.40;;;;;;5093981;28;20070;-69
2024/01/26 06:56:22;;;;;;;13.77;2.65;;;6.70;80.20;;;;;;5093327;28;20035;-68
2024/01/26 06:58:47;;;;;;;14.30;3.38;;;6.70;80.20;;;;;;5093819;28;20040;-68
2024/01/26 07:01:14;;;;;;;17.92;3.35;;;6.70;80.30;;;;;;5094343;28;20047;-68
2024/01/26 07:03:40;;;;;;;16.52;3.05;;;6.80;80.20;;;;;;5093641;28;20032;-67
2024/01/26 07:06:05;;;;;;;11.93;3.08;;;6.80;80.30;;;;;;5093214;28;20121;-68
2024/01/26 07:08:31;;;;;;;19.40;4.07;;;6.80;80.40;;;;;;5094244;28;20027;-68
2024/01/26 07:10:57;;;;;;;18.92;4.38;;;6.80;80.70;;;;;;5094172;28;20153;-68
2024/01/26 07:13:22;;;;;;;12.35;3.95;;;6.80;80.90;;;;;;5094123;28;20093;-69
2024/01/26 07:15:48;;;;;;;20.50;4.10;;;6.80;81.00;;;;;;5093738;28;20103;-68
2024/01/26 07:18:14;;;;;;;17.95;3.83;;;6.90;81.10;;;;;;5094116;28;20046;-68
2024/01/26 07:20:39;;;;;;;23.48;4.43;;;6.90;81.20;;;;;;5093591;28;20376;-68
2024/01/26 07:23:05;;;;;;;19.10;4.65;;;6.90;81.30;;;;;;5093820;28;20357;-68
2024/01/26 07:25:30;;;;;;;15.48;3.97;;;6.90;81.50;;;;;;5093499;28;20028;-67
2024/01/26 07:27:56;;;;;;;16.65;4.20;;;6.90;81.50;;;;;;5093188;28;20035;-68
2024/01/26 07:30:22;;;;;;;19.40;4.78;;;7.00;81.60;;;;;;5093850;28;20430;-68
2024/01/26 07:32:47;;;;;;;17.20;3.97;;;7.00;81.60;;;;;;5091964;28;20043;-68
2024/01/26 07:35:13;;;;;;;22.58;4.60;;;7.00;81.70;;;;;;5093438;28;20093;-69
2024/01/26 07:37:40;;;;;;;19.90;4.32;;;7.00;81.80;;;;;;5091453;28;20557;-67
2024/01/26 07:40:06;;;;;;;15.10;3.85;;;7.00;81.50;;;;;;5093046;28;20024;-69
2024/01/26 07:42:32;;;;;;;18.30;5.05;;;7.10;81.50;;;;;;5093323;28;20173;-67
2024/01/26 07:44:57;;;;;;;23.88;5.47;;;7.10;81.60;;;;;;5092726;28;20475;-69
2024/01/26 07:47:24;;;;;;;24.23;6.18;;;7.10;81.50;;;;;;5093190;28;20031;-68
2024/01/26 07:49:49;;;;;;;16.83;5.53;;;7.20;81.60;;;;;;5092753;28;20020;-69
2024/01/26 07:52:15;;;;;;;19.52;4.85;;;7.20;81.20;;;;;;5093061;28;20441;-67
2024/01/26 07:54:41;;;;;;;19.50;5.20;;;7.20;81.20;;;;;;5091449;28;20028;-68
2024/01/26 07:57:07;;;;;;;14.32;4.60;;;7.30;81.00;;;;;;5091685;28;20027;-68
2024/01/26 07:59:32;;;;;;;19.98;4.80;;;7.30;81.00;;;;;;5093423;28;20361;-69
2024/01/26 08:01:58;;;;;;;14.77;4.07;;;7.30;80.90;;;;;;5092162;28;20466;-68
2024/01/26 08:04:24;;;;;;;19.92;3.92;;;7.40;81.00;;;;;;5091837;28;20119;-68
2024/01/26 08:06:49;;;;;;;18.38;4.25;;;7.40;80.90;;;;;;5092642;28;20437;-69
2024/01/26 08:09:15;;;;;;;19.60;4.28;;;7.40;80.60;;;;;;5092870;28;20032;-68
2024/01/26 08:11:40;;;;;;;16.70;3.90;;;7.40;80.60;;;;;;5091939;28;20024;-69
2024/01/26 08:14:06;;;;;;;20.15;4.10;;;7.50;80.50;;;;;;5092881;28;20448;-68
2024/01/26 08:16:32;;;;;;;16.75;3.78;;;7.50;80.50;;;;;;5092620;28;20388;-68
2024/01/26 08:18:58;;;;;;;15.25;4.00;;;7.50;80.40;;;;;;5092285;28;20053;-69
2024/01/26 08:21:25;;;;;;;15.35;3.80;;;7.50;80.30;;;;;;5097115;28;20114;-68
2024/01/26 08:23:51;;;;;;;17.77;3.92;;;7.60;80.30;;;;;;5112348;28;20024;-69
2024/01/26 08:26:18;;;;;;;16.60;4.43;;;7.60;80.00;;;;;;5113455;28;20027;-69
2024/01/26 08:28:43;;;;;;;16.65;4.60;;;7.60;80.00;;;;;;5112685;28;20038;-67
2024/01/26 08:31:09;;;;;;;12.23;4.28;;;7.70;80.50;;;;;;5112940;28;20027;-68
2024/01/26 08:33:35;;;;;;;20.23;4.88;;;7.70;80.70;;;;;;5112802;28;20027;-69
2024/01/26 08:36:01;;;;;;;19.63;4.43;;;7.70;80.70;;;;;;5113031;28;20106;-69
2024/01/26 08:38:27;;;;;;;22.05;4.20;;;7.70;80.70;;;;;;5112840;28;20126;-68
2024/01/26 08:40:52;;;;;;;13.27;4.13;;;7.80;80.80;;;;;;5112176;28;20030;-68
2024/01/26 08:43:18;;;;;;;20.73;4.93;;;7.80;80.80;;;;;;5112679;28;20032;-68
2024/01/26 08:45:43;;;;;;;20.80;4.47;;;7.80;80.90;;;;;;5112338;28;20062;-68
2024/01/26 08:48:09;;;;;;;22.45;4.88;;;7.80;81.20;;;;;;5108532;28;20433;-68
2024/01/26 08:50:36;;;;;;;19.55;4.55;;;7.80;81.80;;;;;;5092108;28;20024;-68
2024/01/26 08:53:02;;;;;;;18.95;4.70;;;7.80;82.70;;;;;;5092268;28;20021;-68
2024/01/26 08:55:27;;;;;;;17.67;4.90;;;7.80;82.90;;;;;;5092130;28;20078;-68
2024/01/26 08:57:53;;;;;;;22.95;5.28;;;7.80;83.10;;;;;;5089766;28;20075;-68
2024/01/26 09:00:19;;;;;;;23.52;5.35;;;7.90;83.20;;;;;;5091832;28;20046;-68
2024/01/26 09:02:45;;;;;;;19.25;4.50;;;7.90;84.00;;;;;;5091386;28;20101;-69
2024/01/26 09:05:11;;;;;;;21.40;6.05;;;7.90;83.60;;;;;;5091880;28;20519;-68
2024/01/26 09:07:37;;;;;;;19.52;4.28;;;8.00;84.20;;;;;;5091739;28;20032;-71
2024/01/26 09:10:05;;;;;;;21.67;4.85;;;8.00;83.80;;;;;;5091993;28;20050;-68
2024/01/26 09:12:32;;;;;;;19.13;4.45;;;8.00;83.40;;;;;;5091936;28;20031;-69
2024/01/26 09:14:57;;;;;;;18.25;4.43;;;8.00;82.80;;;;;;5091524;28;20346;-69
2024/01/26 09:17:23;;;;;;;23.52;5.20;;;8.00;82.70;;;;;;5091632;28;20452;-68
2024/01/26 09:19:49;;;;;;;22.05;4.88;;;8.00;83.00;;;;;;5090666;28;20043;-69
2024/01/26 09:22:14;;;;;;;17.20;4.68;;;8.10;83.10;;;;;;5091900;28;20016;-68
2024/01/26 09:24:40;;;;;;;19.50;5.18;;;8.10;83.20;;;;;;5091311;28;20024;-68
2024/01/26 09:27:06;;;;;;;16.38;4.97;;;8.10;83.40;;;;;;5091784;28;20110;-68
2024/01/26 09:29:32;;;;;;;22.75;5.55;;;8.10;83.90;;;;;;5091457;28;20086;-68
2024/01/26 09:31:59;;;;;;;23.65;6.13;;;8.10;85.20;;;;;;5091059;28;20103;-69
2024/01/26 09:34:26;;;;;;;23.45;6.30;;;8.20;86.10;;;;;;5091566;28;20384;-68
2024/01/26 09:36:52;;;;;;;18.42;5.70;;;8.20;87.10;;;;;;5090896;28;20101;-68
2024/01/26 09:39:17;;;;;;;24.48;6.47;;;8.20;87.50;;;;;;5090314;28;20476;-69
2024/01/26 09:41:44;;;;;;;22.52;6.10;;;8.20;87.50;;;;;;5090740;28;20021;-68
2024/01/26 09:44:10;;;;;;;24.30;5.75;;;8.20;87.80;;;;;;5090254;28;20016;-68
2024/01/26 09:46:36;;;;;;;24.48;5.35;;;8.30;88.00;;;;;;5091884;28;20464;-69
2024/01/26 09:49:02;;;;;;;19.65;6.07;;;8.30;88.50;;;;;;5091022;28;20035;-67
2024/01/26 09:51:30;;;;;;;16.88;5.93;;;8.30;88.90;;;;;;5091672;28;20103;-68
2024/01/26 09:53:59;;;;;;;24.70;6.05;;;8.30;89.10;;;;;;5091083;28;20032;-69
2024/01/26 09:56:26;;;;;;;26.70;5.38;;;8.40;89.30;;;;;;5091490;28;20016;-68
2024/01/26 09:58:52;;;;;;;18.95;6.15;;;8.30;89.70;;;;;;5091150;28;20111;-69
2024/01/26 10:01:22;;;;;;;16.25;5.40;;;8.40;89.70;;;;;;5091185;28;20119;-68
2024/01/26 10:03:49;;;;;;;20.88;5.72;;;8.40;89.50;;;;;;5090898;28;20039;-68
2024/01/26 10:06:14;;;;;;;21.45;5.35;;;8.40;89.60;;;;;;5091513;28;20077;-69
2024/01/26 10:08:41;;;;;;;20.38;5.57;;;8.40;89.80;;;;;;5091401;28;20111;-67
2024/01/26 10:11:07;;;;;;;22.92;5.70;;;8.40;90.00;;;;;;5091409;28;20025;-68
2024/01/26 10:13:32;;;;;;;19.73;5.10;;;8.50;90.00;;;;;;5091377;28;20035;-69
2024/01/26 10:16:10;;;;;;;22.05;5.47;;;8.50;89.90;;;;;;5091230;28;20380;-69
2024/01/26 10:18:43;;;;;;;21.75;5.47;;;8.50;90.10;;;;;;5091466;28;20503;-68
2024/01/26 10:21:10;;;;;;;19.75;5.55;;;8.50;90.20;;;;;;5091606;28;20039;-69
2024/01/26 10:23:36;;;;;;;17.83;5.45;;;8.50;90.30;;;;;;5091093;28;20032;-68
2024/01/26 10:26:01;;;;;;;32.13;7.07;;;8.50;90.60;;;;;;5090977;28;20239;-68
2024/01/26 10:28:27;;;;;;;16.88;5.18;;;8.50;90.40;;;;;;5105673;28;20468;-69
2024/01/26 10:30:53;;;;;;;16.15;4.40;;;8.60;90.60;;;;;;5114147;28;20020;-69
2024/01/26 10:33:22;;;;;;;18.08;4.95;;;8.60;90.60;;;;;;5115329;28;20452;-68
2024/01/26 10:35:49;;;;;;;19.23;4.28;;;8.60;90.50;;;;;;5113673;28;20513;-68
2024/01/26 10:38:16;;;;;;;14.40;3.85;;;8.60;90.50;;;;;;5114951;28;20096;-68
2024/01/26 10:40:44;;;;;;;23.38;4.47;;;8.70;90.40;;;;;;5115244;28;20035;-69
2024/01/26 10:43:11;;;;;;;13.80;3.15;;;8.70;90.30;;;;;;5115128;28;20107;-68
2024/01/26 10:45:37;;;;;;;17.10;3.58;;;8.70;90.10;;;;;;5114995;28;20393;-68
2024/01/26 10:48:07;;;;;;;15.65;4.30;;;8.70;90.00;;;;;;5114582;28;20583;-68
2024/01/26 10:50:35;;;;;;;18.17;4.50;;;8.70;90.00;;;;;;5114589;28;20035;-69
2024/01/26 10:53:05;;;;;;;17.83;3.85;;;8.80;90.10;;;;;;5114091;28;20076;-69
2024/01/26 10:55:31;;;;;;;19.95;4.45;;;8.80;90.00;;;;;;5114735;28;20031;-68
2024/01/26 10:57:57;;;;;;;19.08;4.25;;;8.80;88.40;;;;;;5113995;28;20468;-68
2024/01/26 11:00:24;;;;;;;20.48;4.45;;;8.80;87.60;;;;;;5114412;28;20161;-68
2024/01/26 11:02:50;;;;;;;19.08;5.25;;;8.80;87.40;;;;;;5114278;28;20100;-68
2024/01/26 11:05:17;;;;;;;22.95;5.05;;;8.80;88.40;;;;;;5094235;28;20468;-69
2024/01/26 11:07:44;;;;;;;14.23;4.50;;;8.70;89.70;;;;;;5094193;28;20077;-68
2024/01/26 11:10:15;;;;;;;25.08;5.78;;;8.70;90.20;;;;;;5093661;28;20465;-69
2024/01/26 11:12:40;;;;;;;20.63;5.43;;;8.70;90.20;;;;;;5093899;28;20051;-67
2024/01/26 11:15:09;;;;;;;25.70;6.00;;;8.60;90.40;;;;;;5093461;28;20067;-68
2024/01/26 11:18:03;;;;;;;16.73;5.07;;;8.60;90.70;;;;;;5093720;28;20036;-68
2024/01/26 11:20:31;;;;;;;24.35;5.95;;;8.40;91.50;;;;;;5089104;28;20044;-68
2024/01/26 11:23:11;;;;;;;28.55;5.93;;;8.30;91.80;;;;;;5093444;28;20081;-68
2024/01/26 11:25:39;;;;;;;22.00;5.93;;;8.20;92.10;;;;;;5092604;28;20097;-68
2024/01/26 11:28:06;;;;;;;21.50;6.00;;;8.10;92.70;;;;;;5093453;28;20107;-67
2024/01/26 11:30:32;;;;;;;22.17;5.78;;;8.10;93.00;;;;;;5093710;28;20112;-68
2024/01/26 11:32:58;;;;;;;26.20;5.70;;;8.10;93.40;;;;;;5092112;28;20544;-68
2024/01/26 11:35:25;;;;;;;17.88;5.75;;;8.00;93.70;;;;;;5093142;28;20497;-68
2024/01/26 11:37:53;;;;;;;19.40;5.88;;;8.00;94.10;;;;;;5092962;28;20059;-69
2024/01/26 11:40:23;;;;;;;20.67;5.25;;;7.90;94.70;;;;;;5093577;28;20384;-68
2024/01/26 11:42:49;;;;;;;22.10;5.85;;;7.90;95.50;;;;;;5092562;28;20124;-68
2024/01/26 11:45:29;;;;;;;21.70;6.07;;;7.90;96.00;;;;;;5093733;28;20032;-68
2024/01/26 11:47:55;;;;;;;24.67;5.50;;;7.80;96.50;;;;;;5092795;28;20061;-68
2024/01/26 11:50:21;;;;;;;22.83;5.55;;;7.80;96.90;;;;;;5093412;28;20068;-67
2024/01/26 11:52:46;;;;;;;22.25;5.60;;;7.80;97.30;;;;;;5093337;28;20028;-68
2024/01/26 11:55:12;;;;;;;16.38;5.82;;;7.80;97.70;;;;;;5092945;28;20464;-69
2024/01/26 11:57:38;;;;;;;19.08;6.70;;;7.80;98.10;;;;;;5092899;28;20411;-67
2024/01/26 12:00:06;;;;;;;24.83;5.65;;;7.80;98.50;;;;;;5092763;28;20032;-69
2024/01/26 12:02:32;;;;;;;15.82;6.20;;;7.80;99.00;;;;;;5093080;28;20396;-69
2024/01/26 12:04:57;;;;;;;11.65;4.65;;;7.80;99.20;;;;;;5092324;28;20032;-69
2024/01/26 12:07:23;;;;;;;14.10;5.13;;;7.70;99.80;;;;;;5093150;28;20028;-69
2024/01/26 12:09:49;;;;;;;13.93;5.40;;;7.70;99.90;;;;;;5092999;28;20020;-68
2024/01/26 12:12:16;;;;;;;16.95;4.93;;;7.70;99.90;;;;;;5092988;28;20024;-69
2024/01/26 12:14:42;;;;;;;13.30;5.35;;;7.70;99.90;;;;;;5092526;28;20028;-68
2024/01/26 12:17:08;;;;;;;16.60;5.22;;;7.60;99.90;;;;;;5092170;28;20507;-69
2024/01/26 12:19:33;;;;;;;18.00;4.97;;;7.70;99.90;;;;;;5092841;28;20040;-69
2024/01/26 12:21:59;;;;;;;16.90;4.70;;;7.60;99.90;;;;;;5092596;28;20457;-68
2024/01/26 12:24:25;;;;;;;21.40;6.85;;;7.60;99.90;;;;;;5093177;28;20028;-68
2024/01/26 12:26:51;;;;;;;17.70;5.72;;;7.60;99.90;;;;;;5092524;28;20358;-71
2024/01/26 12:29:18;;;;;;;17.30;5.05;;;7.60;99.90;;;;;;5092488;28;20032;-68
2024/01/26 12:31:44;;;;;;;20.55;6.03;;;7.60;99.90;;;;;;5092252;28;20028;-68
2024/01/26 12:34:16;;;;;;;16.55;5.57;;;7.60;99.90;;;;;;5092149;28;20038;-69
2024/01/26 12:36:42;;;;;;;15.52;5.00;;;7.60;99.90;;;;;;5100672;28;20066;-68
2024/01/26 12:39:08;;;;;;;14.15;4.88;;;7.60;99.90;;;;;;5112460;28;20058;-68
2024/01/26 12:41:34;;;;;;;20.50;6.38;;;7.50;99.90;;;;;;5111544;28;20028;-68
2024/01/26 12:44:00;;;;;;;20.70;6.10;;;7.60;99.90;;;;;;5111917;28;20485;-69